Terminal Aerodrome Forecast
Issued by NWS

Home | Current Version | Previous Version | Text Only | Print | Product List | Glossary On
Versions: 1 2 3 4 5 6 7 8 9 10 11 12 13 14
000
FTUS44 KEPZ 282336
TAFDMN
TAF
KDMN 282336Z 2900/2924 12008G16KT P6SM FEW090 FEW250
     FM290200 12006KT P6SM FEW100 FEW250
     FM290600 06005KT P6SM FEW080
     FM291700 13007KT P6SM SCT070 SCT250=

USA.gov is the U.S. government's official web portal to all federal, state and local government web resources and services.